Time;durP1;ratioP1;P1;durP2;ratioP2;P2;SDS_P1;SDS_P2;PMS_P1;PMS_P2;Temp;Humidity;BMP_temperature;BMP_pressure;BME280_temperature;BME280_humidity;BME280_pressure;Samples;Min_cycle;Max_cycle;Signal;HPM_P1;HPM_P2
2022/12/29 00:01:29;;;;;;;;;1.75;0.00;;;;;9.93;100.00;99766.50;5060698;28;45228;-90
2022/12/29 00:03:55;;;;;;;;;0.00;0.00;;;;;9.47;100.00;99695.75;5057329;28;45311;-90
2022/12/29 00:06:20;;;;;;;;;0.00;0.00;;;;;10.15;100.00;99802.81;5057184;28;45351;-90
2022/12/29 00:08:47;;;;;;;;;0.75;0.75;;;;;9.57;100.00;99684.88;5040087;28;45400;-92
2022/12/29 00:11:21;;;;;;;;;0.00;0.00;;;;;9.32;100.00;99662.78;5058977;28;45341;-90
2022/12/29 00:16:34;;;;;;;;;0.00;0.00;;;;;10.25;100.00;99814.81;5071021;28;45046;-91
2022/12/29 00:19:03;;;;;;;;;4.00;1.00;;;;;9.30;100.00;99631.16;5042177;28;45414;-90
2022/12/29 00:35:31;;;;;;;;;0.75;0.75;;;;;10.30;100.00;99764.50;5058174;28;45396;-90
2022/12/29 00:46:27;;;;;;;;;3.00;3.00;;;;;9.83;100.00;99683.22;5058753;28;45344;-90
2022/12/29 00:51:36;;;;;;;;;2.00;2.00;;;;;9.34;100.00;99613.50;5059982;28;45366;-92
2022/12/29 00:54:01;;;;;;;;;2.50;2.00;;;;;10.04;100.00;99731.00;5040895;28;45793;-91
2022/12/29 00:56:27;;;;;;;;;3.00;2.00;;;;;10.45;100.00;99810.72;5039250;28;45585;-91
2022/12/29 00:58:52;;;;;;;;;1.75;1.75;;;;;9.61;100.00;99675.13;5037020;28;47306;-91
2022/12/29 01:01:17;;;;;;;;;1.00;0.75;;;;;10.06;100.00;99724.72;5038423;28;45443;-89
2022/12/29 01:03:43;;;;;;;;;0.00;0.00;;;;;9.59;100.00;99658.44;5059930;28;45418;-89
2022/12/29 01:06:10;;;;;;;;;2.00;2.00;;;;;9.02;100.00;99560.81;5062173;28;45530;-89
2022/12/29 01:08:36;;;;;;;;;2.00;2.00;;;;;10.01;100.00;99726.66;5062476;28;45593;-89
2022/12/29 01:11:05;;;;;;;;;1.25;1.25;;;;;9.69;100.00;99681.00;5064146;28;45347;-89
2022/12/29 01:13:30;;;;;;;;;1.50;1.50;;;;;9.98;100.00;99726.75;5050608;28;45447;-89
2022/12/29 01:15:56;;;;;;;;;1.75;1.00;;;;;10.37;100.00;99778.41;5056449;28;45572;-91
2022/12/29 01:18:22;;;;;;;;;1.00;1.00;;;;;10.36;100.00;99790.75;5053682;28;45538;-91
2022/12/29 01:20:48;;;;;;;;;1.00;1.00;;;;;10.02;100.00;99730.16;5063690;28;45343;-89
2022/12/29 01:23:14;;;;;;;;;1.50;1.50;;;;;9.17;100.00;99595.53;5047840;28;45430;-90
2022/12/29 01:25:39;;;;;;;;;3.00;3.00;;;;;8.78;100.00;99516.75;5044712;28;45344;-89
2022/12/29 01:28:08;;;;;;;;;1.00;1.00;;;;;9.76;100.00;99700.16;5046772;28;47217;-91
2022/12/29 01:30:35;;;;;;;;;1.50;1.50;;;;;9.33;100.00;99604.72;5042287;28;45919;-91
2022/12/29 01:33:00;;;;;;;;;1.25;1.00;;;;;10.43;100.00;99801.97;5041615;28;45514;-91
2022/12/29 01:35:26;;;;;;;;;1.00;1.00;;;;;8.87;100.00;99542.81;5044105;28;45522;-90
2022/12/29 01:37:51;;;;;;;;;3.25;1.00;;;;;8.91;100.00;99549.72;5044960;28;48221;-91
2022/12/29 01:40:17;;;;;;;;;1.50;1.50;;;;;9.37;100.00;99603.72;5046421;28;45902;-91
2022/12/29 01:42:42;;;;;;;;;1.75;0.50;;;;;9.41;100.00;99630.84;5075019;28;45343;-90
2022/12/29 01:45:15;;;;;;;;;0.00;0.00;;;;;10.47;100.00;99793.91;5054726;28;45363;-91
2022/12/29 01:47:44;;;;;;;;;0.50;0.50;;;;;10.47;100.00;99795.69;5065010;28;45515;-90
2022/12/29 01:50:22;;;;;;;;;0.00;0.00;;;;;10.48;100.00;99816.78;5034296;28;45856;-91
2022/12/29 01:53:00;;;;;;;;;0.00;0.00;;;;;9.35;100.00;99621.38;5048581;28;45280;-90
2022/12/29 01:55:33;;;;;;;;;2.00;0.75;;;;;10.45;100.00;99805.44;5057001;28;45394;-91
2022/12/29 01:58:04;;;;;;;;;0.00;0.00;;;;;9.50;100.00;99659.59;5061455;28;45637;-91
2022/12/29 02:00:30;;;;;;;;;1.00;1.00;;;;;10.07;100.00;99737.03;5046765;28;45386;-91
2022/12/29 02:02:55;;;;;;;;;0.50;0.50;;;;;10.45;100.00;99802.81;5045055;28;45605;-89
2022/12/29 02:05:45;;;;;;;;;0.00;0.00;;;;;10.45;100.00;99811.59;5046498;28;45542;-90
2022/12/29 02:08:12;;;;;;;;;0.00;0.00;;;;;10.44;100.00;99815.13;5023297;28;47821;-89
2022/12/29 02:10:40;;;;;;;;;0.00;0.00;;;;;9.80;100.00;99711.50;5046116;28;45399;-90
2022/12/29 02:13:06;;;;;;;;;0.00;0.00;;;;;10.45;100.00;99834.50;5025686;28;45366;-91
2022/12/29 02:15:38;;;;;;;;;0.00;0.00;;;;;9.00;100.00;99610.09;5055038;28;45435;-92
2022/12/29 02:18:29;;;;;;;;;0.00;0.00;;;;;9.65;100.00;99716.31;5067121;28;46326;-91
2022/12/29 02:21:36;;;;;;;;;0.50;0.00;;;;;9.89;100.00;99732.31;5047696;28;44942;-92
2022/12/29 02:24:34;;;;;;;;;1.00;0.00;;;;;10.28;100.00;99824.44;5049192;28;45224;-90
2022/12/29 02:27:30;;;;;;;;;0.00;0.00;;;;;10.23;100.00;99819.31;5050182;28;45463;-92
2022/12/29 02:30:01;;;;;;;;;0.00;0.00;;;;;10.16;100.00;99808.94;5057930;28;46196;-91
2022/12/29 02:32:58;;;;;;;;;0.00;0.00;;;;;10.06;100.00;99798.66;5043397;28;45407;-91
2022/12/29 02:35:41;;;;;;;;;0.00;0.00;;;;;8.70;100.00;99599.50;5041650;28;45479;-91
2022/12/29 02:38:13;;;;;;;;;1.00;0.25;;;;;9.92;100.00;99807.00;5061054;28;45389;-92
2022/12/29 02:40:53;;;;;;;;;0.00;0.00;;;;;9.86;100.00;99801.03;5069071;28;46477;-91
2022/12/29 02:43:39;;;;;;;;;0.00;0.00;;;;;8.75;100.00;99624.84;5047228;28;45423;-92
2022/12/29 02:46:19;;;;;;;;;0.00;0.00;;;;;9.14;100.00;99706.34;5059539;28;45379;-93
2022/12/29 02:48:58;;;;;;;;;0.00;0.00;;;;;9.52;100.00;99760.66;5052111;28;45397;-93
2022/12/29 02:55:36;;;;;;;;;0.00;0.00;;;;;9.68;100.00;99779.53;5065872;28;45343;-93
2022/12/29 02:58:09;;;;;;;;;0.00;0.00;;;;;9.64;100.00;99793.75;5045468;28;45341;-93
2022/12/29 03:00:47;;;;;;;;;0.00;0.00;;;;;8.56;100.00;99617.44;5047436;28;45440;-94
2022/12/29 03:03:49;;;;;;;;;0.00;0.00;;;;;8.10;100.00;99537.88;5052947;28;46038;-93
2022/12/29 03:06:17;;;;;;;;;0.00;0.00;;;;;9.64;100.00;99787.59;4994152;28;46134;-94
2022/12/29 03:08:52;;;;;;;;;0.00;0.00;;;;;9.20;100.00;99709.69;4995891;28;45379;-93
2022/12/29 03:17:01;;;;;;;;;0.00;0.00;;;;;8.84;100.00;99672.03;5002881;28;45323;-93
2022/12/29 03:19:45;;;;;;;;;0.00;0.00;;;;;8.82;100.00;99664.16;4990741;28;45267;-90
2022/12/29 03:22:27;;;;;;;;;2.75;0.25;;;;;8.44;100.00;99594.94;5001030;28;45394;-89
2022/12/29 03:24:58;;;;;;;;;1.00;0.00;;;;;9.56;100.00;99786.03;4977210;28;48315;-89
2022/12/29 03:27:36;;;;;;;;;0.00;0.00;;;;;8.94;100.00;99699.84;4991382;28;45424;-90
2022/12/29 03:30:05;;;;;;;;;0.00;0.00;;;;;9.21;100.00;99748.31;4987937;28;45446;-89
2022/12/29 03:32:38;;;;;;;;;0.00;0.00;;;;;8.85;100.00;99679.00;4980941;28;45318;-91
2022/12/29 03:35:08;;;;;;;;;1.00;0.00;;;;;8.67;100.00;99667.19;4980472;28;46835;-90
2022/12/29 03:37:45;;;;;;;;;0.00;0.00;;;;;9.39;100.00;99789.13;4997956;28;45387;-90
2022/12/29 03:40:11;;;;;;;;;0.00;0.00;;;;;8.28;100.00;99617.28;5013877;28;45455;-90
2022/12/29 03:42:39;;;;;;;;;0.00;0.00;;;;;8.97;100.00;99731.38;5038333;28;45340;-91
2022/12/29 03:45:07;;;;;;;;;1.00;0.00;;;;;8.56;100.00;99685.06;5037572;28;47327;-91
2022/12/29 03:47:32;;;;;;;;;0.00;0.00;;;;;8.69;100.00;99711.03;5039325;28;45253;-90
2022/12/29 03:49:57;;;;;;;;;0.00;0.00;;;;;8.98;100.00;99730.50;5052909;28;45374;-90
2022/12/29 03:52:23;;;;;;;;;0.00;0.00;;;;;8.45;100.00;99651.09;5023190;28;45563;-90
2022/12/29 03:54:48;;;;;;;;;0.00;0.00;;;;;8.26;100.00;99612.06;5044442;28;45909;-90
2022/12/29 03:57:14;;;;;;;;;0.00;0.00;;;;;8.98;100.00;99738.41;5039228;28;45379;-89
2022/12/29 03:59:39;;;;;;;;;0.00;0.00;;;;;9.45;100.00;99816.28;5040515;28;45468;-89
2022/12/29 04:02:05;;;;;;;;;0.25;0.25;;;;;9.46;100.00;99812.72;5027820;28;45392;-89
2022/12/29 04:04:30;;;;;;;;;0.50;0.25;;;;;8.43;100.00;99621.28;5020803;28;46994;-89
2022/12/29 04:06:55;;;;;;;;;1.25;0.00;;;;;8.43;100.00;99639.72;5008931;28;46094;-90
2022/12/29 04:09:21;;;;;;;;;0.00;0.00;;;;;8.78;100.00;99683.59;5007035;28;45289;-90
2022/12/29 04:11:46;;;;;;;;;0.50;0.00;;;;;9.12;100.00;99743.28;5030129;28;45582;-90
2022/12/29 04:14:12;;;;;;;;;1.50;0.00;;;;;8.95;100.00;99724.44;5023806;28;47103;-90
2022/12/29 04:16:38;;;;;;;;;0.00;0.00;;;;;8.73;100.00;99696.03;5025849;28;45368;-90
2022/12/29 04:19:07;;;;;;;;;0.00;0.00;;;;;9.26;100.00;99771.91;5053027;28;45434;-90
2022/12/29 04:21:33;;;;;;;;;0.00;0.00;;;;;9.57;100.00;99829.13;5043231;28;45498;-92
2022/12/29 04:23:58;;;;;;;;;0.00;0.00;;;;;8.83;100.00;99723.00;5043153;28;48018;-92
2022/12/29 04:26:24;;;;;;;;;1.50;0.00;;;;;9.25;100.00;99800.06;5039653;28;45885;-92
2022/12/29 04:28:49;;;;;;;;;0.00;0.00;;;;;9.58;100.00;99851.94;5058761;28;45370;-89
2022/12/29 04:31:14;;;;;;;;;0.00;0.00;;;;;9.16;100.00;99796.81;5040888;28;45535;-90
2022/12/29 04:33:40;;;;;;;;;0.00;0.00;;;;;8.26;100.00;99637.50;5059339;28;45562;-91
2022/12/29 04:36:06;;;;;;;;;0.00;0.00;;;;;9.12;100.00;99787.25;5047535;28;45471;-91
2022/12/29 04:38:31;;;;;;;;;0.00;0.00;;;;;8.60;100.00;99697.25;5062729;28;45493;-90
2022/12/29 04:41:00;;;;;;;;;0.00;0.00;;;;;9.59;100.00;99851.03;5062851;28;45393;-90
2022/12/29 04:43:26;;;;;;;;;0.00;0.00;;;;;9.60;100.00;99858.06;5048093;28;46816;-89
2022/12/29 04:45:51;;;;;;;;;0.00;0.00;;;;;8.53;100.00;99693.91;5047076;28;45368;-90
2022/12/29 04:48:17;;;;;;;;;0.00;0.00;;;;;8.69;100.00;99721.59;5063391;28;45558;-89
2022/12/29 04:50:43;;;;;;;;;0.25;0.25;;;;;9.58;100.00;99873.94;5043414;28;45420;-91
2022/12/29 04:53:08;;;;;;;;;0.50;0.00;;;;;9.56;100.00;99866.97;5044836;28;46878;-89
2022/12/29 04:55:34;;;;;;;;;0.00;0.00;;;;;8.64;100.00;99702.41;5043722;28;45431;-89
2022/12/29 04:57:59;;;;;;;;;1.00;0.00;;;;;9.16;100.00;99794.19;5060884;28;45435;-92
2022/12/29 05:00:25;;;;;;;;;0.00;0.00;;;;;8.71;100.00;99746.13;5042420;28;45287;-90
2022/12/29 05:02:50;;;;;;;;;0.00;0.00;;;;;8.53;100.00;99714.97;5046920;28;46198;-89
2022/12/29 05:05:17;;;;;;;;;0.00;0.00;;;;;8.38;100.00;99681.97;5051286;28;45450;-89
2022/12/29 05:07:43;;;;;;;;;0.75;0.00;;;;;8.39;100.00;99702.13;5049473;28;45509;-90
2022/12/29 05:10:09;;;;;;;;;0.00;0.00;;;;;8.33;100.00;99689.97;5062313;28;45585;-91
2022/12/29 05:12:36;;;;;;;;;0.00;0.00;;;;;8.75;100.00;99767.13;5044399;28;46221;-91
2022/12/29 05:15:03;;;;;;;;;0.00;0.00;;;;;7.65;100.00;99582.84;5062481;28;45358;-91
2022/12/29 05:17:30;;;;;;;;;1.50;0.00;;;;;8.61;100.00;99739.38;5042000;28;45206;-91
2022/12/29 05:19:56;;;;;;;;;0.00;0.00;;;;;8.72;100.00;99757.53;5031965;28;45654;-91
2022/12/29 05:22:21;;;;;;;;;0.00;0.00;;;;;9.49;100.00;99891.75;5040164;28;48521;-91
2022/12/29 05:24:47;;;;;;;;;2.00;0.25;;;;;7.88;100.00;99620.88;5030619;28;45417;-91
2022/12/29 05:27:13;;;;;;;;;0.75;0.00;;;;;8.66;100.00;99755.91;5045173;28;45417;-90
2022/12/29 05:29:38;;;;;;;;;1.00;0.00;;;;;7.14;100.00;99496.41;5039144;28;45442;-91
2022/12/29 05:32:04;;;;;;;;;0.75;0.75;;;;;8.22;100.00;99683.25;5032574;28;47360;-90
2022/12/29 05:34:34;;;;;;;;;0.00;0.00;;;;;7.75;100.00;99602.75;5047735;28;45372;-91
2022/12/29 05:37:02;;;;;;;;;0.00;0.00;;;;;8.74;100.00;99786.47;5048298;28;45348;-91
2022/12/29 05:39:27;;;;;;;;;2.00;1.00;;;;;8.95;100.00;99843.06;5065519;28;45461;-91
2022/12/29 05:41:53;;;;;;;;;0.25;0.00;;;;;9.34;100.00;99915.00;5068833;28;46518;-91
2022/12/29 05:44:18;;;;;;;;;0.50;0.00;;;;;7.66;100.00;99631.91;5052261;28;45741;-91
2022/12/29 05:46:44;;;;;;;;;3.50;1.25;;;;;8.08;100.00;99680.97;5059957;28;44946;-90
2022/12/29 05:49:12;;;;;;;;;0.00;0.00;;;;;8.39;100.00;99751.28;5053490;28;45364;-92
2022/12/29 05:51:37;;;;;;;;;0.75;0.75;;;;;8.44;100.00;99768.75;5062250;28;45483;-90
2022/12/29 05:54:03;;;;;;;;;2.75;1.00;;;;;8.82;100.00;99826.66;5048851;28;45191;-90
2022/12/29 05:56:32;;;;;;;;;0.00;0.00;;;;;7.59;100.00;99647.00;5052416;28;45288;-90
2022/12/29 05:58:57;;;;;;;;;0.00;0.00;;;;;8.08;100.00;99715.19;5045131;28;45439;-91
2022/12/29 06:01:23;;;;;;;;;3.00;1.00;;;;;7.73;100.00;99685.25;5043320;28;47284;-92
2022/12/29 06:03:48;;;;;;;;;0.75;0.00;;;;;7.55;100.00;99647.09;5063586;28;45443;-91
2022/12/29 06:06:14;;;;;;;;;2.00;1.00;;;;;8.04;100.00;99747.72;5067024;28;45410;-91
2022/12/29 06:08:39;;;;;;;;;2.00;0.00;;;;;9.12;100.00;99924.34;5048542;28;45388;-90
2022/12/29 06:11:05;;;;;;;;;2.00;1.00;;;;;9.09;100.00;99922.66;5063183;28;48029;-91
2022/12/29 06:13:31;;;;;;;;;0.00;0.00;;;;;8.73;100.00;99864.66;5027574;28;45282;-91
2022/12/29 06:15:57;;;;;;;;;1.00;0.00;;;;;7.31;100.00;99643.22;5045497;28;45297;-91
2022/12/29 06:18:22;;;;;;;;;5.00;2.00;;;;;9.18;100.00;99948.78;5043426;28;45595;-91
2022/12/29 06:20:49;;;;;;;;;2.25;1.00;;;;;8.89;100.00;99912.59;5066195;28;46310;-91
2022/12/29 06:23:16;;;;;;;;;1.00;1.00;;;;;9.15;100.00;99961.19;5067340;28;45343;-91
2022/12/29 06:25:41;;;;;;;;;0.00;0.00;;;;;8.89;100.00;99920.50;5058828;28;44791;-90
2022/12/29 06:28:07;;;;;;;;;0.00;0.00;;;;;7.64;100.00;99702.97;5068417;28;44980;-92
2022/12/29 06:30:33;;;;;;;;;0.50;0.50;;;;;7.97;100.00;99753.13;5068289;28;45584;-91
2022/12/29 06:32:59;;;;;;;;;0.00;0.00;;;;;7.22;100.00;99632.00;5046086;28;45501;-91
2022/12/29 06:35:25;;;;;;;;;0.25;0.25;;;;;8.68;100.00;99883.22;5049268;28;45210;-91
2022/12/29 06:37:52;;;;;;;;;0.75;0.75;;;;;8.65;100.00;99895.56;5064034;28;45678;-90
2022/12/29 06:40:18;;;;;;;;;1.00;0.00;;;;;7.97;100.00;99795.22;5061444;28;45656;-92
2022/12/29 06:42:43;;;;;;;;;2.00;1.00;;;;;7.91;100.00;99779.56;5049360;28;45268;-90
2022/12/29 06:45:09;;;;;;;;;0.75;0.75;;;;;7.82;100.00;99770.09;5049904;28;45234;-90
2022/12/29 06:47:35;;;;;;;;;1.75;1.00;;;;;9.04;100.00;99980.75;5049514;28;45534;-92
2022/12/29 06:50:02;;;;;;;;;0.75;0.75;;;;;7.94;100.00;99803.19;5061150;28;48039;-91
2022/12/29 06:52:28;;;;;;;;;1.50;1.00;;;;;8.10;100.00;99853.72;5028215;28;44971;-92
2022/12/29 06:54:54;;;;;;;;;0.00;0.00;;;;;8.92;100.00;99999.50;5062479;28;45445;-92
2022/12/29 06:57:21;;;;;;;;;0.25;0.00;;;;;9.01;100.00;100009.81;5051546;28;45462;-92
2022/12/29 06:59:46;;;;;;;;;2.00;1.00;;;;;8.99;100.00;100024.81;5041540;28;47108;-91
2022/12/29 07:02:14;;;;;;;;;1.00;1.00;;;;;7.04;100.00;99691.03;5043175;28;45404;-91
2022/12/29 07:04:40;;;;;;;;;1.00;1.00;;;;;9.01;100.00;100030.91;5047666;28;45528;-91
2022/12/29 07:07:08;;;;;;;;;1.00;0.00;;;;;7.85;100.00;99827.06;5046974;28;45460;-92
2022/12/29 07:09:34;;;;;;;;;0.00;0.00;;;;;8.13;100.00;99885.25;5044256;28;48517;-92
2022/12/29 07:11:59;;;;;;;;;1.00;1.00;;;;;7.77;100.00;99815.81;5023054;28;45428;-92
2022/12/29 07:14:27;;;;;;;;;3.00;0.00;;;;;7.90;100.00;99826.97;5039582;28;45375;-91
2022/12/29 07:16:53;;;;;;;;;0.00;0.00;;;;;9.02;100.00;100013.34;5021232;28;45377;-92
2022/12/29 07:19:18;;;;;;;;;0.00;0.00;;;;;7.87;100.00;99819.16;5027840;28;48448;-92
2022/12/29 07:21:44;;;;;;;;;0.00;0.00;;;;;7.92;100.00;99844.44;5061528;28;45339;-91
2022/12/29 07:24:09;;;;;;;;;1.00;1.00;;;;;8.10;100.00;99873.91;5041756;28;45275;-92
2022/12/29 07:26:41;;;;;;;;;0.25;0.00;;;;;8.32;100.00;99935.75;5060657;28;45598;-91
2022/12/29 07:29:06;;;;;;;;;0.00;0.00;;;;;7.54;100.00;99790.84;5047698;28;47050;-91
2022/12/29 07:31:32;;;;;;;;;0.00;0.00;;;;;7.37;100.00;99756.16;5051096;28;45218;-92
2022/12/29 07:33:57;;;;;;;;;0.00;0.00;;;;;7.87;100.00;99850.72;5073537;28;44734;-91
2022/12/29 07:36:23;;;;;;;;;2.25;1.75;;;;;7.58;100.00;99802.19;5062601;28;45418;-90
2022/12/29 07:38:48;;;;;;;;;1.00;1.00;;;;;8.27;100.00;99907.78;5045851;28;47002;-91
2022/12/29 07:41:15;;;;;;;;;0.50;0.50;;;;;7.34;100.00;99761.47;5047053;28;45502;-90
2022/12/29 07:43:41;;;;;;;;;0.75;0.25;;;;;7.36;100.00;99778.06;5041227;28;45403;-92
2022/12/29 07:46:11;;;;;;;;;2.00;1.00;;;;;8.18;100.00;99929.91;5057064;28;45420;-92
2022/12/29 07:48:36;;;;;;;;;0.25;0.00;;;;;7.87;100.00;99861.25;5021367;28;45354;-91
2022/12/29 07:51:01;;;;;;;;;2.00;0.00;;;;;8.22;100.00;99939.47;5056692;28;45432;-91
2022/12/29 07:53:27;;;;;;;;;0.75;0.00;;;;;8.65;100.00;99988.63;5063242;28;45495;-92
2022/12/29 07:55:52;;;;;;;;;0.00;0.00;;;;;8.98;100.00;100080.22;5046879;28;45266;-90
2022/12/29 07:58:18;;;;;;;;;3.75;0.25;;;;;8.65;100.00;100011.50;5067241;28;45545;-91
2022/12/29 08:00:54;;;;;;;;;0.00;0.00;;;;;8.95;100.00;100088.19;5068521;28;45360;-93
2022/12/29 08:03:25;;;;;;;;;0.25;0.00;;;;;8.95;100.00;100075.84;5045665;28;45281;-92
2022/12/29 08:05:51;;;;;;;;;1.75;0.75;;;;;7.81;100.00;99899.06;5042088;28;45322;-89
2022/12/29 08:08:25;;;;;;;;;1.75;1.75;;;;;8.48;100.00;100006.56;5042485;28;46943;-92
2022/12/29 08:10:50;;;;;;;;;1.25;1.00;;;;;8.54;100.00;100022.25;5028661;28;45368;-92
2022/12/29 08:13:15;;;;;;;;;2.75;1.50;;;;;7.15;100.00;99788.09;5045921;28;45340;-92
2022/12/29 08:15:41;;;;;;;;;1.25;1.25;;;;;7.75;100.00;99893.91;5049484;28;45249;-94
2022/12/29 08:18:21;;;;;;;;;1.00;1.00;;;;;8.50;100.00;100028.47;5071624;28;46170;-95
2022/12/29 08:20:50;;;;;;;;;1.25;1.00;;;;;7.38;100.00;99836.72;5068491;28;45434;-95
2022/12/29 08:23:15;;;;;;;;;0.00;0.00;;;;;7.36;100.00;99826.25;5063926;28;45332;-92
2022/12/29 08:25:41;;;;;;;;;3.00;2.00;;;;;8.94;100.00;100081.16;5043492;28;45506;-92
2022/12/29 08:28:08;;;;;;;;;0.00;0.00;;;;;8.04;100.00;99953.00;5031087;28;46991;-92
2022/12/29 08:30:33;;;;;;;;;0.00;0.00;;;;;7.34;100.00;99835.06;5044582;28;45546;-91
2022/12/29 08:32:59;;;;;;;;;0.75;0.75;;;;;7.22;100.00;99800.22;5023583;28;45286;-93
2022/12/29 08:35:24;;;;;;;;;2.00;1.00;;;;;7.33;100.00;99822.81;5059647;28;45358;-91
2022/12/29 08:37:53;;;;;;;;;3.25;2.25;;;;;7.73;100.00;99912.38;5059291;28;46548;-90
2022/12/29 08:40:19;;;;;;;;;1.00;1.00;;;;;8.33;100.00;100011.19;5055905;28;45469;-90
2022/12/29 08:42:46;;;;;;;;;0.00;0.00;;;;;8.87;100.00;100083.06;5057921;28;45351;-89
2022/12/29 08:45:12;;;;;;;;;1.25;1.25;;;;;9.15;100.00;100135.22;5064247;28;45513;-89
2022/12/29 08:47:37;;;;;;;;;1.00;1.00;;;;;9.16;100.00;100139.59;5049652;28;46848;-89
2022/12/29 08:50:03;;;;;;;;;0.00;0.00;;;;;8.74;100.00;100078.94;5040058;28;45660;-88
2022/12/29 08:52:28;;;;;;;;;1.75;1.00;;;;;8.39;100.00;100006.72;5040230;28;45601;-90
2022/12/29 08:54:54;;;;;;;;;2.50;1.00;;;;;8.12;100.00;99972.13;5045497;28;45161;-90
2022/12/29 08:57:19;;;;;;;;;1.00;1.00;;;;;8.46;100.00;100040.00;5032234;28;46311;-88
2022/12/29 08:59:44;;;;;;;;;0.00;0.00;;;;;9.18;100.00;100146.53;5028287;28;45497;-88
2022/12/29 09:02:18;;;;;;;;;1.00;1.00;;;;;8.19;100.00;100000.09;5064592;28;45244;-91
2022/12/29 09:04:43;;;;;;;;;0.50;0.00;;;;;8.88;100.00;100100.59;5051350;28;45440;-90
2022/12/29 09:07:09;;;;;;;;;1.00;1.00;;;;;8.28;100.00;99997.28;5042116;28;47344;-91
2022/12/29 09:09:34;;;;;;;;;0.50;0.50;;;;;8.86;100.00;100081.31;5043851;28;45323;-91
2022/12/29 09:12:00;;;;;;;;;2.00;1.00;;;;;8.52;100.00;100030.19;5023146;28;45440;-93
2022/12/29 09:14:25;;;;;;;;;0.00;0.00;;;;;8.39;100.00;100007.59;5050302;28;45297;-91
2022/12/29 09:19:36;;;;;;;;;0.50;0.50;;;;;8.60;100.00;100037.94;5057079;28;45382;-91
2022/12/29 09:22:30;;;;;;;;;1.50;1.00;;;;;9.51;100.00;100159.06;5057890;28;45394;-94
2022/12/29 09:24:55;;;;;;;;;1.00;1.00;;;;;7.94;100.00;99911.09;5043120;28;45300;-92
2022/12/29 09:27:21;;;;;;;;;1.00;1.00;;;;;7.53;100.00;99844.34;5048829;28;47089;-91
2022/12/29 09:29:46;;;;;;;;;1.00;1.00;;;;;9.67;100.00;100168.38;5049452;28;44854;-91
2022/12/29 09:32:12;;;;;;;;;0.00;0.00;;;;;9.69;100.00;100173.63;5048721;28;45423;-90
2022/12/29 09:34:37;;;;;;;;;0.25;0.25;;;;;8.58;100.00;99997.59;5063150;28;45597;-91
2022/12/29 09:37:03;;;;;;;;;1.75;1.75;;;;;9.02;100.00;100048.47;5053325;28;48051;-89
2022/12/29 09:39:29;;;;;;;;;2.00;2.00;;;;;9.40;100.00;100117.09;5045779;28;46369;-93
2022/12/29 09:45:40;;;;;;;;;0.75;0.75;;;;;8.76;100.00;99998.09;5071170;28;45425;-92
2022/12/29 09:48:16;;;;;;;;;0.50;0.50;;;;;8.76;100.00;100011.25;5068198;28;45244;-92
2022/12/29 09:50:49;;;;;;;;;1.75;0.00;;;;;8.52;100.00;99976.66;5045272;28;45272;-93
2022/12/29 09:53:24;;;;;;;;;4.00;2.00;;;;;9.57;100.00;100119.34;5049511;28;45428;-92
2022/12/29 09:55:54;;;;;;;;;2.75;2.00;;;;;8.18;100.00;99874.63;5054431;28;45350;-93
2022/12/29 09:59:01;;;;;;;;;0.75;0.75;;;;;8.43;100.00;99934.69;5054790;28;47019;-93
2022/12/29 10:01:33;;;;;;;;;0.00;0.00;;;;;9.78;100.00;100162.84;5053385;28;45384;-91
2022/12/29 10:04:02;;;;;;;;;2.25;1.00;;;;;9.17;100.00;100067.47;5047211;28;45185;-92
2022/12/29 10:06:54;;;;;;;;;0.25;0.25;;;;;9.88;100.00;100155.56;5064262;28;45534;-91
2022/12/29 10:09:51;;;;;;;;;1.00;1.00;;;;;9.25;100.00;100061.13;5048751;28;45330;-91
2022/12/29 10:12:49;;;;;;;;;1.50;1.50;;;;;9.52;100.00;100086.91;4968196;28;45335;-91
2022/12/29 10:15:56;;;;;;;;;1.75;1.00;;;;;9.83;100.00;100107.31;4972789;28;45270;-91
2022/12/29 10:18:27;;;;;;;;;3.00;1.25;;;;;10.62;100.00;100201.31;4912631;28;45350;-91
2022/12/29 10:20:58;;;;;;;;;1.50;1.00;;;;;10.31;100.00;100146.59;4909851;28;47128;-93
2022/12/29 10:23:50;;;;;;;;;1.25;0.75;;;;;10.63;100.00;100168.72;4913807;28;45302;-90
2022/12/29 10:26:23;;;;;;;;;0.00;0.00;;;;;10.20;100.00;100072.03;4928776;28;45448;-93
2022/12/29 10:29:03;;;;;;;;;5.00;3.00;;;;;9.99;100.00;100029.47;4911876;28;45503;-90
2022/12/29 10:31:46;;;;;;;;;2.75;1.00;;;;;9.72;100.00;99959.78;4911535;28;46573;-91
2022/12/29 10:34:33;;;;;;;;;2.25;1.25;;;;;11.23;100.00;100219.06;4926400;28;45244;-92
2022/12/29 10:37:05;;;;;;;;;2.25;1.00;;;;;10.78;100.00;100143.59;4911808;28;45237;-91
2022/12/29 10:39:36;;;;;;;;;2.25;1.50;;;;;9.77;100.00;99956.09;4925394;28;45483;-92
2022/12/29 10:45:30;;;;;;;;;1.00;1.00;;;;;11.07;100.00;100153.38;4932034;28;44688;-93
2022/12/29 10:48:03;;;;;;;;;3.75;1.50;;;;;11.30;100.00;100157.13;4936883;28;45401;-93
2022/12/29 10:50:29;;;;;;;;;3.25;3.00;;;;;11.52;100.00;100152.06;4979923;28;44950;-93
2022/12/29 10:52:58;;;;;;;;;2.50;2.00;;;;;11.77;100.00;100151.28;4958481;28;46807;-91
2022/12/29 10:55:30;;;;;;;;;3.50;2.00;;;;;11.38;100.00;100041.34;5000735;28;44633;-93
2022/12/29 10:58:02;;;;;;;;;2.00;2.00;;;;;11.14;100.00;99972.41;5036388;28;45348;-93
2022/12/29 11:00:27;;;;;;;;;0.25;0.25;;;;;12.33;100.00;100158.31;5038475;28;44775;-92
2022/12/29 11:03:39;;;;;;;;;2.25;1.00;;;;;11.98;100.00;100072.97;5055707;28;46555;-93
2022/12/29 11:06:18;;;;;;;;;4.00;2.00;;;;;12.89;99.62;100227.13;5039939;28;44644;-94
2022/12/29 11:08:57;;;;;;;;;1.00;1.00;;;;;12.60;98.92;100141.50;5038614;28;45313;-93
2022/12/29 11:11:33;;;;;;;;;4.75;1.00;;;;;11.86;100.00;100019.47;5037823;28;45255;-93
2022/12/29 11:14:21;;;;;;;;;3.50;2.00;;;;;12.23;99.80;100084.44;5041981;28;45284;-93
2022/12/29 11:17:03;;;;;;;;;6.00;3.00;;;;;12.00;100.00;100065.84;5047078;28;45444;-94
2022/12/29 11:19:31;;;;;;;;;2.75;2.75;;;;;11.17;100.00;99927.38;5046544;28;45288;-92
2022/12/29 11:22:22;;;;;;;;;3.25;1.25;;;;;12.91;100.00;100204.03;5027204;28;45424;-93
2022/12/29 11:24:53;;;;;;;;;2.00;1.00;;;;;11.14;100.00;99916.88;5061572;28;47605;-93
2022/12/29 11:27:24;;;;;;;;;2.00;2.00;;;;;12.24;100.00;100107.38;5046357;28;45495;-93
2022/12/29 11:29:55;;;;;;;;;3.75;1.75;;;;;12.87;100.00;100191.81;5043675;28;45223;-93
2022/12/29 11:32:29;;;;;;;;;2.00;1.25;;;;;12.29;100.00;100078.09;5050479;28;45396;-94
2022/12/29 11:34:58;;;;;;;;;2.25;1.25;;;;;12.48;99.04;100088.91;5054577;28;47157;-93
2022/12/29 11:37:39;;;;;;;;;3.00;1.75;;;;;12.88;99.18;100127.22;5050064;28;45253;-93
2022/12/29 11:40:19;;;;;;;;;4.75;2.75;;;;;12.78;97.77;100064.84;5045623;28;45416;-91
2022/12/29 11:42:52;;;;;;;;;3.00;2.00;;;;;12.92;97.56;100097.03;5041954;28;45217;-93
2022/12/29 11:45:33;;;;;;;;;4.00;4.00;;;;;12.83;96.64;100049.63;5057832;28;48099;-93
2022/12/29 11:48:25;;;;;;;;;1.50;1.25;;;;;13.32;97.14;100129.16;5022450;28;45364;-95
2022/12/29 11:50:59;;;;;;;;;5.25;1.25;;;;;13.29;97.74;100108.88;5025462;28;45312;-93
2022/12/29 11:53:37;;;;;;;;;2.00;1.00;;;;;13.82;97.08;100200.69;5034477;28;45459;-91
2022/12/29 11:56:07;;;;;;;;;1.50;1.50;;;;;13.36;98.06;100135.22;5036205;28;48331;-92
2022/12/29 11:58:38;;;;;;;;;4.00;2.00;;;;;13.45;99.44;100140.19;5044902;28;45340;-91
2022/12/29 12:01:43;;;;;;;;;0.75;0.75;;;;;13.89;98.18;100177.38;5060317;27;45494;-94
2022/12/29 12:04:16;;;;;;;;;1.00;1.00;;;;;13.10;97.76;100010.59;5048824;28;45394;-94
2022/12/29 12:06:52;;;;;;;;;3.25;3.25;;;;;14.02;92.88;100093.59;5029836;28;47129;-93
2022/12/29 12:09:51;;;;;;;;;1.00;0.75;;;;;15.07;89.46;100160.91;5030798;28;45383;-94
2022/12/29 12:12:46;;;;;;;;;1.00;1.00;;;;;15.51;90.92;100182.91;5046888;28;44834;-94
2022/12/29 12:15:30;;;;;;;;;2.00;2.00;;;;;15.56;86.45;100124.94;5016548;28;44891;-94
2022/12/29 12:18:23;;;;;;;;;3.00;1.00;;;;;16.06;88.43;100182.94;5037458;28;47165;-93
2022/12/29 12:20:54;;;;;;;;;3.00;1.00;;;;;14.93;91.50;100007.19;5030968;28;45348;-93
2022/12/29 12:24:05;;;;;;;;;2.25;0.00;;;;;15.43;92.58;100109.56;5044742;28;44725;-94
2022/12/29 12:26:51;;;;;;;;;3.00;1.50;;;;;14.50;94.04;99997.63;5048771;28;45453;-92
2022/12/29 12:29:24;;;;;;;;;2.75;2.75;;;;;14.21;94.60;100027.25;5038239;28;47287;-89
2022/12/29 12:32:08;;;;;;;;;1.00;1.00;;;;;14.21;92.19;100076.88;5032736;28;45457;-89
2022/12/29 12:34:39;;;;;;;;;1.50;1.50;;;;;13.72;97.67;100032.00;5055021;28;45512;-90